Time;durP1;ratioP1;P1;durP2;ratioP2;P2;SDS_P1;SDS_P2;PMS_P1;PMS_P2;Temp;Humidity;BMP_temperature;BMP_pressure;BME280_temperature;BME280_humidity;BME280_pressure;Samples;Min_cycle;Max_cycle;Signal;HPM_P1;HPM_P2
2023/12/08 00:01:11;;;;;;;24.93;15.23;;;;;;;2.49;nan;98925.34;5015386;28;20214;-79
2023/12/08 00:03:36;;;;;;;21.13;14.17;;;;;;;2.49;nan;98916.75;5015259;28;20493;-79
2023/12/08 00:06:02;;;;;;;26.00;16.10;;;;;;;2.50;nan;98915.81;5010095;28;20686;-79
2023/12/08 00:08:27;;;;;;;28.52;17.90;;;;;;;2.53;nan;98928.66;5014989;28;20922;-80
2023/12/08 00:10:53;;;;;;;28.70;15.07;;;;;;;2.55;nan;98919.91;5012704;28;20236;-79
2023/12/08 00:13:18;;;;;;;24.77;14.50;;;;;;;2.59;nan;98916.28;5015743;28;20195;-79
2023/12/08 00:15:44;;;;;;;19.63;12.00;;;;;;;2.61;nan;98908.44;5014587;28;20202;-79
2023/12/08 00:18:10;;;;;;;26.10;11.67;;;;;;;2.63;nan;98901.44;5017089;28;20254;-78
2023/12/08 00:20:36;;;;;;;23.92;14.23;;;;;;;2.65;nan;98910.00;5016716;28;20312;-79
2023/12/08 00:23:01;;;;;;;27.97;15.63;;;;;;;2.66;nan;98907.34;5022485;28;20305;-79
2023/12/08 00:25:27;;;;;;;22.90;14.97;;;;;;;2.66;nan;98904.75;5009703;28;20807;-79
2023/12/08 00:27:52;;;;;;;25.30;15.97;;;;;;;2.71;nan;98898.53;5014951;28;20187;-79
2023/12/08 00:30:18;;;;;;;20.13;13.73;;;;;;;2.72;nan;98903.63;5011230;28;20224;-78
2023/12/08 00:32:43;;;;;;;23.20;14.63;;;;;;;2.71;nan;98904.56;5009626;28;20304;-78
2023/12/08 00:35:08;;;;;;;22.90;14.27;;;;;;;2.72;nan;98892.41;5012771;28;20294;-78
2023/12/08 00:37:34;;;;;;;21.90;14.53;;;;;;;2.69;nan;98885.63;5009992;28;20857;-78
2023/12/08 00:40:00;;;;;;;21.42;12.65;;;;;;;2.67;nan;98887.41;5016600;28;20178;-79
2023/12/08 00:42:26;;;;;;;28.10;13.60;;;;;;;2.66;nan;98886.59;5012525;28;20343;-79
2023/12/08 00:44:52;;;;;;;19.98;14.70;;;;;;;2.68;nan;98889.13;5023428;28;20194;-79
2023/12/08 00:47:17;;;;;;;18.73;12.73;;;;;;;2.71;nan;98888.16;5015113;28;20190;-79
2023/12/08 00:49:42;;;;;;;22.23;12.53;;;;;;;2.72;nan;98880.28;5018392;28;20757;-79
2023/12/08 00:52:08;;;;;;;20.37;12.53;;;;;;;2.73;nan;98887.19;5026379;28;20755;-79
2023/12/08 00:54:33;;;;;;;15.80;11.00;;;;;;;2.75;nan;98874.13;5017930;28;20198;-78
2023/12/08 00:56:58;;;;;;;18.67;12.00;;;;;;;2.77;nan;98878.34;5019621;28;20202;-80
2023/12/08 00:59:24;;;;;;;20.67;12.97;;;;;;;2.79;nan;98870.50;5020862;28;20856;-79
2023/12/08 01:01:49;;;;;;;21.40;14.90;;;;;;;2.81;nan;98873.88;5020487;28;20292;-78
2023/12/08 01:04:15;;;;;;;22.77;14.30;;;;;;;2.82;nan;98868.63;5020770;28;20194;-79
2023/12/08 01:06:40;;;;;;;21.10;13.83;;;;;;;2.85;nan;98871.06;5024645;28;20373;-79
2023/12/08 01:09:05;;;;;;;15.83;11.10;;;;;;;2.86;nan;98883.16;5022933;28;20222;-79
2023/12/08 01:11:31;;;;;;;18.70;11.60;;;;;;;2.89;nan;98866.63;5020256;28;20256;-79
2023/12/08 01:13:56;;;;;;;18.43;11.73;;;;;;;2.92;nan;98875.97;5014318;28;20198;-78
2023/12/08 01:16:22;;;;;;;18.20;12.13;;;;;;;2.94;nan;98856.00;5015757;28;20195;-78
2023/12/08 01:18:47;;;;;;;21.10;11.93;;;;;;;2.92;nan;98863.00;5011019;28;20654;-78
2023/12/08 01:21:12;;;;;;;21.23;13.03;;;;;;;2.93;nan;98854.34;5013238;28;20674;-79
2023/12/08 01:23:38;;;;;;;16.67;11.17;;;;;;;2.95;nan;98868.09;5014778;28;20198;-78
2023/12/08 01:26:08;;;;;;;14.20;11.77;;;;;;;2.94;nan;98856.00;5019358;28;20244;-79
2023/12/08 01:28:34;;;;;;;13.40;11.10;;;;;;;2.94;nan;98845.63;5018481;28;20206;-78
2023/12/08 01:31:00;;;;;;;19.43;12.67;;;;;;;2.94;nan;98837.84;5010134;28;20267;-78
2023/12/08 01:33:25;;;;;;;14.53;10.00;;;;;;;2.87;nan;98842.50;5014674;28;20297;-78
2023/12/08 01:35:50;;;;;;;19.30;12.03;;;;;;;2.87;nan;98843.31;5015307;28;20640;-78
2023/12/08 01:38:16;;;;;;;17.17;11.40;;;;;;;2.85;nan;98850.31;5023774;28;20240;-77
2023/12/08 01:40:41;;;;;;;16.73;9.70;;;;;;;2.85;nan;98852.06;5017745;28;20182;-77
2023/12/08 01:43:13;;;;;;;16.93;11.40;;;;;;;2.84;nan;98853.00;5012225;28;20358;-78
2023/12/08 01:45:39;;;;;;;15.05;11.45;;;;;;;2.84;nan;98853.84;5010441;28;20198;-77
2023/12/08 01:48:06;;;;;;;20.60;12.95;;;;;;;2.82;nan;98841.84;5015949;28;20194;-77
2023/12/08 01:50:32;;;;;;;13.68;9.30;;;;;;;2.83;nan;98849.53;5012779;28;20289;-77
2023/12/08 01:52:58;;;;;;;13.27;9.50;;;;;;;2.86;nan;98883.16;5022906;28;20870;-77
2023/12/08 01:55:23;;;;;;;18.33;11.00;;;;;;;2.86;nan;98852.03;5016332;28;20217;-77
2023/12/08 01:57:49;;;;;;;17.97;10.77;;;;;;;2.85;nan;98873.66;5015885;28;20514;-77
2023/12/08 02:00:16;;;;;;;14.40;9.27;;;;;;;2.84;nan;98861.63;5016455;28;20207;-77
2023/12/08 02:02:43;;;;;;;18.60;11.20;;;;;;;2.82;nan;98844.44;5018010;28;20614;-77
2023/12/08 02:05:09;;;;;;;19.52;11.05;;;;;;;2.80;nan;98892.94;5016908;28;20190;-77
2023/12/08 02:07:35;;;;;;;27.95;14.18;;;;;;;2.80;nan;98879.97;5017372;28;20190;-77
2023/12/08 02:10:01;;;;;;;23.77;13.77;;;;;;;2.78;nan;98868.81;5014008;28;20210;-78
2023/12/08 02:12:27;;;;;;;24.40;13.93;;;;;;;2.80;nan;98887.75;5021303;28;20213;-77
2023/12/08 02:14:52;;;;;;;17.07;12.47;;;;;;;2.81;nan;98895.47;5022688;28;20189;-76
2023/12/08 02:17:32;;;;;;;19.17;13.10;;;;;;;2.84;nan;98895.34;5015603;28;20261;-76
2023/12/08 02:19:58;;;;;;;22.85;11.90;;;;;;;2.88;nan;98890.84;5015043;28;20198;-76
2023/12/08 02:22:24;;;;;;;17.57;11.37;;;;;;;2.94;nan;98879.34;5015021;28;20276;-76
2023/12/08 02:24:49;;;;;;;17.30;11.57;;;;;;;2.96;nan;98887.91;5014708;28;20198;-76
2023/12/08 02:27:15;;;;;;;17.77;13.57;;;;;;;2.97;nan;98885.28;5014412;28;20198;-76
2023/12/08 02:29:41;;;;;;;15.68;10.35;;;;;;;2.99;nan;98892.97;5018055;28;20213;-76
2023/12/08 02:32:28;;;;;;;13.27;9.80;;;;;;;2.99;nan;98892.97;5012953;28;20217;-76
2023/12/08 02:34:57;;;;;;;16.77;11.35;;;;;;;3.00;nan;98910.25;5015352;28;20205;-76
2023/12/08 02:37:23;;;;;;;12.82;9.82;;;;;;;2.99;nan;98911.97;5006964;28;20193;-76
2023/12/08 02:39:49;;;;;;;15.52;10.13;;;;;;;3.00;nan;98894.66;5008782;28;20302;-76
2023/12/08 02:42:15;;;;;;;14.25;10.68;;;;;;;2.95;nan;98884.50;5013699;28;20232;-76
2023/12/08 02:44:40;;;;;;;17.13;10.37;;;;;;;2.96;nan;98916.44;5015505;28;20190;-76
2023/12/08 02:47:06;;;;;;;15.90;10.73;;;;;;;2.96;nan;98926.84;5014480;28;20206;-76
2023/12/08 02:49:34;;;;;;;16.15;10.68;;;;;;;2.98;nan;98932.81;5013132;28;20242;-76
2023/12/08 02:51:59;;;;;;;13.25;11.00;;;;;;;2.99;nan;98932.72;5012885;28;20257;-76
2023/12/08 02:54:24;;;;;;;20.20;11.90;;;;;;;3.01;nan;98911.91;5013241;28;20255;-76
2023/12/08 02:56:50;;;;;;;15.70;9.83;;;;;;;3.02;nan;98917.00;5010787;28;20236;-76
2023/12/08 02:59:15;;;;;;;18.10;11.20;;;;;;;3.05;nan;98905.66;5014658;28;20183;-76
2023/12/08 03:01:41;;;;;;;17.13;11.97;;;;;;;3.07;nan;98917.66;5022568;28;20256;-76
2023/12/08 03:04:06;;;;;;;17.43;11.13;;;;;;;3.12;nan;98922.66;5018540;28;20703;-76
2023/12/08 03:06:31;;;;;;;18.70;12.53;;;;;;;3.14;nan;98915.66;5012260;28;20222;-76
2023/12/08 03:08:57;;;;;;;25.37;18.40;;;;;;;3.18;nan;98929.31;5010107;28;20440;-76
2023/12/08 03:11:22;;;;;;;20.53;13.57;;;;;;;3.17;nan;98906.88;5018889;28;20485;-76
2023/12/08 03:13:47;;;;;;;18.17;13.50;;;;;;;3.18;nan;98916.34;5012962;28;20237;-76
2023/12/08 03:16:13;;;;;;;17.87;12.13;;;;;;;3.18;nan;98906.81;5021116;28;20229;-76
2023/12/08 03:18:39;;;;;;;18.63;13.13;;;;;;;3.19;nan;98905.91;5013340;28;20899;-76
2023/12/08 03:21:04;;;;;;;13.67;10.23;;;;;;;3.20;nan;98902.41;5013254;28;20525;-75
2023/12/08 03:23:30;;;;;;;22.00;11.57;;;;;;;3.23;nan;98902.25;5013898;28;20210;-76
2023/12/08 03:25:55;;;;;;;21.00;13.20;;;;;;;3.23;nan;98896.22;5009559;28;20738;-76
2023/12/08 03:28:20;;;;;;;15.03;10.27;;;;;;;3.25;nan;98886.63;5016550;28;20203;-76
2023/12/08 03:30:46;;;;;;;18.60;11.87;;;;;;;3.27;nan;98874.44;5013553;28;20359;-76
2023/12/08 03:33:11;;;;;;;12.10;9.87;;;;;;;3.24;nan;98867.63;5015111;28;20233;-76
2023/12/08 03:35:36;;;;;;;19.77;11.60;;;;;;;3.25;nan;98858.06;5015022;28;20193;-76
2023/12/08 03:38:02;;;;;;;20.73;13.10;;;;;;;3.23;nan;98857.31;5013561;28;20441;-75
2023/12/08 03:40:27;;;;;;;20.17;13.33;;;;;;;3.19;nan;98856.59;5007074;28;20826;-76
2023/12/08 03:42:53;;;;;;;19.67;12.10;;;;;;;3.20;nan;98849.66;5013912;28;20210;-76
2023/12/08 03:45:18;;;;;;;18.83;11.23;;;;;;;3.20;nan;98858.28;5016677;28;20676;-76
2023/12/08 03:47:43;;;;;;;14.20;10.80;;;;;;;3.24;nan;98862.44;5019619;28;20210;-76
2023/12/08 03:50:09;;;;;;;14.03;10.53;;;;;;;3.28;nan;98850.97;5009453;28;20305;-76
2023/12/08 03:52:34;;;;;;;19.27;12.10;;;;;;;3.33;nan;98850.78;5017055;28;20218;-76
2023/12/08 03:55:00;;;;;;;14.57;10.77;;;;;;;3.37;nan;98857.50;5015756;28;20255;-76
2023/12/08 03:57:25;;;;;;;17.63;11.40;;;;;;;3.39;nan;98855.69;5012933;28;20267;-77
2023/12/08 03:59:50;;;;;;;13.63;9.60;;;;;;;3.42;nan;98846.91;5013492;28;20548;-76
2023/12/08 04:02:16;;;;;;;18.63;11.10;;;;;;;3.43;nan;98845.97;5013168;28;20240;-76
2023/12/08 04:04:42;;;;;;;13.00;10.00;;;;;;;3.42;nan;98846.91;5015493;28;20243;-77
2023/12/08 04:07:07;;;;;;;15.40;10.77;;;;;;;3.41;nan;98837.44;5009689;28;20557;-77
2023/12/08 04:09:32;;;;;;;18.03;11.87;;;;;;;3.42;nan;98844.31;5013627;28;20207;-77
2023/12/08 04:11:58;;;;;;;14.63;11.97;;;;;;;3.44;nan;98850.28;5011032;28;20256;-76
2023/12/08 04:14:23;;;;;;;16.90;11.67;;;;;;;3.46;nan;98845.88;5014147;28;20284;-76
2023/12/08 04:16:51;;;;;;;15.60;11.33;;;;;;;3.48;nan;98851.81;5015341;28;20193;-76
2023/12/08 04:19:19;;;;;;;17.27;12.27;;;;;;;3.51;nan;98859.44;5017542;28;20217;-76
2023/12/08 04:21:45;;;;;;;16.00;10.88;;;;;;;3.53;nan;98865.41;5019806;28;20206;-77
2023/12/08 04:24:10;;;;;;;14.57;10.30;;;;;;;3.51;nan;98864.63;5015546;28;20205;-77
2023/12/08 04:26:36;;;;;;;20.23;11.70;;;;;;;3.48;nan;98862.19;5018737;28;20198;-77
2023/12/08 04:29:01;;;;;;;14.37;9.97;;;;;;;3.49;nan;98856.94;5018043;28;20198;-76
2023/12/08 04:31:26;;;;;;;15.30;11.27;;;;;;;3.52;nan;98861.97;5017410;28;20668;-76
2023/12/08 04:33:52;;;;;;;17.27;10.23;;;;;;;3.52;nan;98845.56;5014934;28;20468;-77
2023/12/08 04:36:17;;;;;;;14.93;10.60;;;;;;;3.51;nan;98844.75;5016576;28;20198;-77
2023/12/08 04:38:43;;;;;;;15.77;10.57;;;;;;;3.52;nan;98856.78;5015313;28;20259;-77
2023/12/08 04:41:08;;;;;;;17.33;10.70;;;;;;;3.53;nan;98849.84;5015287;28;20198;-78
2023/12/08 04:43:33;;;;;;;15.83;10.80;;;;;;;3.53;nan;98848.06;5013432;28;20694;-77
2023/12/08 04:45:59;;;;;;;18.53;10.63;;;;;;;3.55;nan;98850.63;5020008;28;20263;-78
2023/12/08 04:48:24;;;;;;;20.30;10.40;;;;;;;3.54;nan;98849.78;5019932;28;20541;-76
2023/12/08 04:50:54;;;;;;;15.47;10.17;;;;;;;3.56;nan;98854.88;5012166;28;20582;-77
2023/12/08 04:53:20;;;;;;;17.15;9.10;;;;;;;3.56;nan;98849.69;5017245;28;20646;-76
2023/12/08 04:55:45;;;;;;;15.03;10.80;;;;;;;3.56;nan;98849.69;5013240;28;20234;-77
2023/12/08 04:58:10;;;;;;;16.67;11.00;;;;;;;3.56;nan;98860.06;5017396;28;20191;-76
2023/12/08 05:00:36;;;;;;;16.07;11.60;;;;;;;3.58;nan;98863.44;5018082;28;20202;-77
2023/12/08 05:03:01;;;;;;;18.00;11.70;;;;;;;3.53;nan;98863.66;5014188;28;20206;-77
2023/12/08 05:05:26;;;;;;;17.03;11.90;;;;;;;3.54;nan;98851.53;5020356;28;20201;-78
2023/12/08 05:07:52;;;;;;;19.47;13.33;;;;;;;3.54;nan;98854.97;5020607;28;20782;-79
2023/12/08 05:10:18;;;;;;;19.97;11.87;;;;;;;3.49;nan;98856.09;5013611;28;20200;-76
2023/12/08 05:12:44;;;;;;;18.23;13.80;;;;;;;3.47;nan;98858.75;5015323;28;20457;-78
2023/12/08 05:15:09;;;;;;;22.73;12.03;;;;;;;3.48;nan;98857.00;5022837;28;20194;-77
2023/12/08 05:17:35;;;;;;;12.90;9.97;;;;;;;3.48;nan;98854.41;5022442;28;20471;-79
2023/12/08 05:20:03;;;;;;;15.17;11.30;;;;;;;3.50;nan;98862.97;5019604;28;20573;-78
2023/12/08 05:22:28;;;;;;;19.92;12.40;;;;;;;3.52;nan;98864.59;5016064;28;20252;-77
2023/12/08 05:24:54;;;;;;;16.00;11.20;;;;;;;3.55;nan;98861.84;5016822;28;20554;-77
2023/12/08 05:27:19;;;;;;;22.50;12.67;;;;;;;3.60;nan;98860.78;5016222;28;20195;-77
2023/12/08 05:29:45;;;;;;;15.53;11.30;;;;;;;3.63;nan;98869.28;5014152;28;20629;-77
2023/12/08 05:32:10;;;;;;;14.73;10.20;;;;;;;3.69;nan;98870.72;5021785;28;20804;-77
2023/12/08 05:34:36;;;;;;;19.30;10.87;;;;;;;3.70;nan;98868.06;5018236;28;20249;-79
2023/12/08 05:37:01;;;;;;;24.90;11.50;;;;;;;3.72;nan;98873.19;5019641;28;20194;-77
2023/12/08 05:39:26;;;;;;;19.23;11.40;;;;;;;3.73;nan;98869.69;5011623;28;20708;-77
2023/12/08 05:41:52;;;;;;;19.40;12.13;;;;;;;3.73;nan;98878.31;5018498;28;20195;-77
2023/12/08 05:44:18;;;;;;;15.13;10.83;;;;;;;3.80;nan;98868.47;5018050;28;20195;-78
2023/12/08 05:46:43;;;;;;;16.42;11.15;;;;;;;3.81;nan;98871.91;5014005;28;20236;-76
2023/12/08 05:49:08;;;;;;;15.93;11.17;;;;;;;3.84;nan;98869.19;5018515;28;20211;-76
2023/12/08 05:51:34;;;;;;;31.63;11.83;;;;;;;3.87;nan;98866.44;5014420;28;20214;-76
2023/12/08 05:54:00;;;;;;;20.20;13.03;;;;;;;3.91;nan;98862.75;5016303;28;20198;-78
2023/12/08 05:56:25;;;;;;;19.17;11.90;;;;;;;3.92;nan;98852.31;5014722;28;20281;-76
2023/12/08 05:58:50;;;;;;;15.27;10.67;;;;;;;3.96;nan;98855.56;5018595;28;20230;-76
2023/12/08 06:01:16;;;;;;;26.63;13.10;;;;;;;3.98;nan;98859.78;5017346;28;20260;-77
2023/12/08 06:03:41;;;;;;;18.37;12.00;;;;;;;4.03;nan;98863.94;5019047;28;20249;-77
2023/12/08 06:06:06;;;;;;;19.83;11.17;;;;;;;4.07;nan;98866.28;5020242;28;20198;-76
2023/12/08 06:08:32;;;;;;;26.50;16.80;;;;;;;4.13;nan;98863.41;5011603;28;20452;-78
2023/12/08 06:10:57;;;;;;;19.40;12.47;;;;;;;4.16;nan;98865.03;5016557;28;20485;-76
2023/12/08 06:13:23;;;;;;;23.90;13.50;;;;;;;4.18;nan;98864.00;5018603;28;20205;-78
2023/12/08 06:15:48;;;;;;;27.07;12.30;;;;;;;4.24;nan;98859.41;5015770;28;20194;-79
2023/12/08 06:18:14;;;;;;;18.90;12.70;;;;;;;4.25;nan;98858.50;5015990;28;20267;-77
2023/12/08 06:20:39;;;;;;;22.70;13.23;;;;;;;4.27;nan;98862.72;5014299;28;20194;-77
2023/12/08 06:23:04;;;;;;;18.80;13.27;;;;;;;4.33;nan;98858.97;5021049;28;20305;-78
2023/12/08 06:25:30;;;;;;;18.80;12.23;;;;;;;4.35;nan;98852.78;5004529;28;20199;-77
2023/12/08 06:27:55;;;;;;;20.10;10.60;;;;;;;4.38;nan;98863.03;5005208;28;20253;-77
2023/12/08 06:30:20;;;;;;;16.20;11.20;;;;;;;4.39;nan;98854.28;4998999;28;20210;-78
2023/12/08 06:32:46;;;;;;;19.40;9.97;;;;;;;4.40;nan;98848.19;5010084;28;20734;-78
2023/12/08 06:35:11;;;;;;;25.53;12.57;;;;;;;4.43;nan;98848.03;5005335;28;20652;-77
2023/12/08 06:37:37;;;;;;;21.87;13.93;;;;;;;4.45;nan;98840.13;4996574;28;20517;-77
2023/12/08 06:40:03;;;;;;;20.93;12.47;;;;;;;4.48;nan;98842.56;4994066;28;20908;-79
2023/12/08 06:42:29;;;;;;;22.35;11.68;;;;;;;4.49;nan;98839.06;4999625;28;20206;-79
2023/12/08 06:44:55;;;;;;;18.17;12.27;;;;;;;4.52;nan;98833.72;4995342;28;20198;-77
2023/12/08 06:47:20;;;;;;;20.27;10.60;;;;;;;4.55;nan;98843.13;5000006;28;20602;-78
2023/12/08 06:49:46;;;;;;;14.27;9.10;;;;;;;4.59;nan;98844.63;5000150;28;20691;-77
2023/12/08 06:52:11;;;;;;;20.77;11.60;;;;;;;4.61;nan;98841.03;4998588;28;20225;-77
2023/12/08 06:54:36;;;;;;;21.87;12.27;;;;;;;4.64;nan;98847.84;4997711;28;20281;-77
2023/12/08 06:57:02;;;;;;;19.63;12.40;;;;;;;4.66;nan;98846.84;4995876;28;20771;-77
2023/12/08 06:59:27;;;;;;;20.67;11.23;;;;;;;4.68;nan;98844.16;4996654;28;20202;-77
2023/12/08 07:01:53;;;;;;;16.23;11.20;;;;;;;4.72;nan;98855.25;4998108;28;20205;-78
2023/12/08 07:04:18;;;;;;;17.97;13.73;;;;;;;4.75;nan;98857.69;5002349;28;20206;-78
2023/12/08 07:06:44;;;;;;;17.80;12.40;;;;;;;4.78;nan;98862.72;4997927;28;21233;-78
2023/12/08 07:09:11;;;;;;;14.75;11.00;;;;;;;4.80;nan;98863.50;4999828;28;20293;-77
2023/12/08 07:11:36;;;;;;;24.45;12.68;;;;;;;4.80;nan;98868.69;5003432;28;20221;-79
2023/12/08 07:14:03;;;;;;;22.55;12.45;;;;;;;4.82;nan;98869.47;5009935;28;20312;-77
2023/12/08 07:16:28;;;;;;;16.43;10.13;;;;;;;4.81;nan;98870.41;5004115;28;20857;-79
2023/12/08 07:18:54;;;;;;;15.27;10.37;;;;;;;4.81;nan;98875.59;5006549;28;20194;-78
2023/12/08 07:21:19;;;;;;;17.47;10.90;;;;;;;4.83;nan;98871.13;4995794;28;20269;-79
2023/12/08 07:23:45;;;;;;;15.90;11.67;;;;;;;4.85;nan;98877.94;5002435;28;20657;-78
2023/12/08 07:26:10;;;;;;;18.03;10.83;;;;;;;4.89;nan;98868.25;5008085;28;20201;-77
2023/12/08 07:28:36;;;;;;;19.63;11.10;;;;;;;4.93;nan;98869.75;5006625;28;20199;-77
2023/12/08 07:31:02;;;;;;;21.55;12.43;;;;;;;4.96;nan;98866.97;5006029;28;20210;-79
2023/12/08 07:33:28;;;;;;;17.98;11.05;;;;;;;5.00;nan;98868.50;5005189;28;20222;-78
2023/12/08 07:35:53;;;;;;;22.50;12.90;;;;;;;5.04;nan;98870.00;5000483;28;20217;-79
2023/12/08 07:38:18;;;;;;;35.07;16.90;;;;;;;5.08;nan;98865.50;5010466;28;20293;-77
2023/12/08 07:40:45;;;;;;;24.40;14.23;;;;;;;5.12;nan;98856.59;5006948;28;20197;-78
2023/12/08 07:43:10;;;;;;;20.15;12.85;;;;;;;5.17;nan;98867.63;5007408;28;20213;-77
2023/12/08 07:45:36;;;;;;;21.00;12.97;;;;;;;5.23;nan;98856.84;5002888;28;20880;-79
2023/12/08 07:48:02;;;;;;;26.53;12.70;;;;;;;5.28;nan;98864.44;5006728;28;20205;-79
2023/12/08 07:50:27;;;;;;;16.50;12.90;;;;;;;5.29;nan;98866.09;5001739;28;20225;-79
2023/12/08 07:52:53;;;;;;;23.53;14.03;;;;;;;5.33;nan;98865.03;5004318;28;20686;-77
2023/12/08 07:55:19;;;;;;;17.63;10.95;;;;;;;5.40;nan;98873.34;5005372;28;20210;-79
2023/12/08 07:57:44;;;;;;;24.77;13.30;;;;;;;5.44;nan;98865.28;5007004;28;20186;-79
2023/12/08 08:00:10;;;;;;;14.47;10.50;;;;;;;5.47;nan;98864.28;5010255;28;20195;-77
2023/12/08 08:02:39;;;;;;;19.33;9.83;;;;;;;5.53;nan;98869.13;5006245;28;20198;-79
2023/12/08 08:05:05;;;;;;;14.10;10.45;;;;;;;5.59;nan;98867.97;5005220;28;20445;-77
2023/12/08 08:07:30;;;;;;;11.43;7.53;;;;;;;5.65;nan;98867.66;5006689;28;20630;-80
2023/12/08 08:09:56;;;;;;;16.17;9.80;;;;;;;5.69;nan;98869.13;4999707;28;20803;-80
2023/12/08 08:12:21;;;;;;;16.83;10.43;;;;;;;5.72;nan;98868.97;5009109;28;20289;-79
2023/12/08 08:14:47;;;;;;;13.73;9.27;;;;;;;5.72;nan;98866.34;5036701;22;20180;-83
2023/12/08 08:17:12;;;;;;;17.33;9.60;;;;;;;5.74;nan;98872.34;5003439;28;20262;-81
2023/12/08 08:19:38;;;;;;;13.30;10.00;;;;;;;5.78;nan;98868.66;5010418;28;20576;-81
2023/12/08 08:22:03;;;;;;;11.20;8.30;;;;;;;5.86;nan;98876.88;5004551;28;20201;-81
2023/12/08 08:24:28;;;;;;;14.30;8.43;;;;;;;5.87;nan;98862.91;5009972;28;20351;-81
2023/12/08 08:26:54;;;;;;;13.83;7.90;;;;;;;5.92;nan;98849.63;4988000;28;20248;-81
2023/12/08 08:29:20;;;;;;;14.93;9.03;;;;;;;5.95;nan;98860.75;4982722;28;20249;-81
2023/12/08 08:31:45;;;;;;;13.57;9.10;;;;;;;5.98;nan;98852.75;4999590;28;20245;-81
2023/12/08 08:34:10;;;;;;;16.87;9.20;;;;;;;6.03;nan;98869.91;4995587;28;20206;-81
2023/12/08 08:36:36;;;;;;;10.23;8.73;;;;;;;6.04;nan;98868.97;4995617;28;20239;-82
2023/12/08 08:39:03;;;;;;;14.53;8.47;;;;;;;6.07;nan;98864.41;4985220;28;20330;-81
2023/12/08 08:41:29;;;;;;;13.82;9.30;;;;;;;6.11;nan;98870.31;4990252;28;20249;-82
2023/12/08 08:43:54;;;;;;;18.85;11.07;;;;;;;6.13;nan;98868.44;4993273;28;20190;-81
2023/12/08 08:46:20;;;;;;;15.60;10.90;;;;;;;6.16;nan;98873.50;4992029;28;20772;-81
2023/12/08 08:48:45;;;;;;;16.10;10.00;;;;;;;6.18;nan;98875.09;4988962;28;20214;-82
2023/12/08 08:51:11;;;;;;;15.43;9.10;;;;;;;6.21;nan;98868.81;4989248;28;20211;-82
2023/12/08 08:53:39;;;;;;;16.90;12.10;;;;;;;6.25;nan;98865.13;4987884;28;20964;-82
2023/12/08 08:56:05;;;;;;;16.75;12.10;;;;;;;6.28;nan;98875.38;4992344;28;20545;-82
2023/12/08 08:58:32;;;;;;;21.73;11.50;;;;;;;6.30;nan;98878.75;4984330;28;20325;-82
2023/12/08 09:00:57;;;;;;;21.02;13.55;;;;;;;6.34;nan;98879.41;4990988;28;20273;-82
2023/12/08 09:03:23;;;;;;;16.87;11.40;;;;;;;6.37;nan;98881.81;4996651;28;20828;-82
2023/12/08 09:05:48;;;;;;;18.27;11.53;;;;;;;6.39;nan;98880.81;4998379;28;20195;-82
2023/12/08 09:08:14;;;;;;;13.33;9.90;;;;;;;6.42;nan;98878.00;4996742;28;20257;-82
2023/12/08 09:10:40;;;;;;;15.67;9.90;;;;;;;6.46;nan;98881.31;4991881;28;20214;-82
2023/12/08 09:13:05;;;;;;;20.95;11.95;;;;;;;6.50;nan;98888.00;4993235;28;20218;-82
2023/12/08 09:15:30;;;;;;;19.33;11.10;;;;;;;6.54;nan;98889.53;4985005;28;20262;-81
2023/12/08 09:17:56;;;;;;;16.70;11.10;;;;;;;6.59;nan;98891.88;4990229;28;20195;-82
2023/12/08 09:20:22;;;;;;;14.43;10.20;;;;;;;6.62;nan;98886.47;4986518;28;20199;-82
2023/12/08 09:22:47;;;;;;;17.70;13.20;;;;;;;6.65;nan;98886.28;4996499;28;20559;-82
2023/12/08 09:25:12;;;;;;;18.30;12.03;;;;;;;6.69;nan;98887.75;4993556;28;20318;-82
2023/12/08 09:27:38;;;;;;;13.47;9.77;;;;;;;6.71;nan;98888.53;4996808;28;20249;-81
2023/12/08 09:30:05;;;;;;;18.03;11.53;;;;;;;6.74;nan;98895.34;4991404;28;20533;-81
2023/12/08 09:32:30;;;;;;;19.65;11.40;;;;;;;6.74;nan;98895.34;4995660;28;20203;-81
2023/12/08 09:34:56;;;;;;;13.33;10.27;;;;;;;6.75;nan;98902.22;4994911;28;20210;-82
2023/12/08 09:37:22;;;;;;;13.60;9.40;;;;;;;6.74;nan;98901.38;4999175;28;20226;-82
2023/12/08 09:39:47;;;;;;;13.10;9.83;;;;;;;6.77;nan;98900.38;4997316;28;20210;-82
2023/12/08 09:42:21;;;;;;;16.30;10.10;;;;;;;6.80;nan;98895.78;4996445;28;20307;-82
2023/12/08 09:44:49;;;;;;;17.38;11.52;;;;;;;6.84;nan;98896.47;4996875;28;20198;-82
2023/12/08 09:47:17;;;;;;;18.55;10.95;;;;;;;6.84;nan;98886.88;4996720;28;20199;-82
2023/12/08 09:49:46;;;;;;;17.25;10.57;;;;;;;6.89;nan;98891.81;4995452;28;20893;-81
2023/12/08 09:52:14;;;;;;;14.57;11.07;;;;;;;6.93;nan;98895.06;4997536;28;20976;-81
2023/12/08 09:54:40;;;;;;;17.88;12.27;;;;;;;6.94;nan;98891.53;4992102;28;20211;-81
2023/12/08 09:57:07;;;;;;;13.90;10.10;;;;;;;6.97;nan;98901.81;5001896;28;20270;-81
2023/12/08 09:59:34;;;;;;;17.35;11.13;;;;;;;6.98;nan;98899.09;5001192;28;20191;-81
2023/12/08 10:02:00;;;;;;;15.35;11.02;;;;;;;7.03;nan;98896.19;4993825;28;20603;-82
2023/12/08 10:04:26;;;;;;;17.17;10.93;;;;;;;7.08;nan;98897.59;4996662;28;20687;-81
2023/12/08 10:06:54;;;;;;;12.30;10.47;;;;;;;7.14;nan;98898.16;4996861;28;20203;-81
2023/12/08 10:09:21;;;;;;;17.48;11.05;;;;;;;7.19;nan;98888.28;4990223;28;20853;-81
2023/12/08 10:11:46;;;;;;;22.50;13.05;;;;;;;7.23;nan;98898.44;4996693;28;20198;-81
2023/12/08 10:14:12;;;;;;;32.17;16.37;;;;;;;7.28;nan;98893.75;4992041;28;20234;-81
2023/12/08 10:16:38;;;;;;;24.98;16.52;;;;;;;7.31;nan;98888.34;4997352;28;20216;-81
2023/12/08 10:19:07;;;;;;;24.90;16.60;;;;;;;7.36;nan;98884.63;4998841;28;20295;-81
2023/12/08 10:21:34;;;;;;;31.42;16.30;;;;;;;7.40;nan;98899.16;4999604;28;20485;-82
2023/12/08 10:24:00;;;;;;;33.35;19.20;;;;;;;7.44;nan;98893.66;5001657;28;20611;-81
2023/12/08 10:26:27;;;;;;;30.92;16.83;;;;;;;7.46;nan;98893.56;5002696;28;20211;-82
2023/12/08 10:28:56;;;;;;;22.50;16.02;;;;;;;7.50;nan;98877.59;5001057;28;20194;-82
2023/12/08 10:31:22;;;;;;;24.67;18.20;;;;;;;7.54;nan;98876.47;4994242;28;20265;-82
2023/12/08 10:33:50;;;;;;;21.65;17.45;;;;;;;7.60;nan;98874.41;5006644;28;20214;-82
2023/12/08 10:36:16;;;;;;;27.42;18.95;;;;;;;7.64;nan;98871.53;5014874;28;20288;-81
2023/12/08 10:38:42;;;;;;;26.57;17.17;;;;;;;7.67;nan;98866.09;5002308;28;20195;-81
2023/12/08 10:41:11;;;;;;;17.50;13.50;;;;;;;7.73;nan;98870.09;5008958;28;20493;-81
2023/12/08 10:43:37;;;;;;;16.00;12.43;;;;;;;7.79;nan;98869.69;4998035;28;20199;-81
2023/12/08 10:46:03;;;;;;;12.85;8.40;;;;;;;7.88;nan;98869.09;5000503;28;20202;-81
2023/12/08 10:48:29;;;;;;;12.33;7.77;;;;;;;7.95;nan;98867.75;4996495;28;20203;-81
2023/12/08 10:50:56;;;;;;;8.23;6.10;;;;;;;8.05;nan;98862.78;4998531;28;20473;-82
2023/12/08 10:53:22;;;;;;;7.22;5.07;;;;;;;8.14;nan;98870.03;4999173;28;20466;-82
2023/12/08 10:55:52;;;;;;;7.87;4.97;;;;;;;8.25;nan;98871.09;4994385;28;20203;-82
2023/12/08 10:58:20;;;;;;;12.23;5.13;;;;;;;8.32;nan;98875.84;4995753;28;20294;-82
2023/12/08 11:00:46;;;;;;;5.05;3.97;;;;;;;8.41;nan;98867.38;4997066;28;20191;-83
2023/12/08 11:03:12;;;;;;;5.93;3.47;;;;;;;8.51;nan;98872.03;4993169;28;20196;-83
2023/12/08 11:05:47;;;;;;;3.20;2.47;;;;;;;8.61;nan;98865.22;4993710;28;20212;-82
2023/12/08 11:08:16;;;;;;;3.70;3.40;;;;;;;8.71;nan;98868.88;4994315;28;20614;-82
2023/12/08 11:10:45;;;;;;;3.08;2.00;;;;;;;8.82;nan;98873.41;5001953;28;20199;-81
2023/12/08 11:13:28;;;;;;;3.55;2.10;;;;;;;8.95;nan;98865.53;5003116;28;20920;-82
2023/12/08 11:16:05;;;;;;;1.55;1.38;;;;;;;9.03;nan;98879.78;5000043;28;20314;-82
2023/12/08 11:18:35;;;;;;;3.97;2.60;;;;;;;9.08;nan;98879.47;4996693;28;20237;-83
2023/12/08 11:21:06;;;;;;;3.50;3.20;;;;;;;9.13;nan;98869.53;5000350;28;20461;-85
2023/12/08 11:23:31;;;;;;;4.53;3.67;;;;;;;9.19;nan;98873.50;5018092;28;20182;-85
2023/12/08 11:26:20;;;;;;;3.13;2.83;;;;;;;9.24;nan;98868.78;5017519;28;20647;-85
2023/12/08 11:29:08;;;;;;;4.38;2.60;;;;;;;9.28;nan;98875.47;5012648;28;20229;-85
2023/12/08 11:32:08;;;;;;;2.25;1.55;;;;;;;9.33;nan;98870.72;5008540;28;20663;-85
2023/12/08 11:34:35;;;;;;;2.20;1.55;;;;;;;9.40;nan;98874.59;5003151;28;20189;-85
2023/12/08 11:37:01;;;;;;;1.48;1.33;;;;;;;9.44;nan;98870.81;5007545;28;20213;-85
2023/12/08 11:39:40;;;;;;;1.10;1.00;;;;;;;9.49;nan;98881.81;5013697;28;20186;-86